sensor_id;sensor_type;location;lat;lon;timestamp;temperature;humidity
43524;DHT22;29120;52.006;6.020;2022-11-15T00:00:45;8.50;99.90
43524;DHT22;29120;52.006;6.020;2022-11-15T00:03:13;8.50;99.90
43524;DHT22;29120;52.006;6.020;2022-11-15T00:05:39;8.50;99.90
43524;DHT22;29120;52.006;6.020;2022-11-15T00:08:04;8.50;99.90
43524;DHT22;29120;52.006;6.020;2022-11-15T00:10:30;8.50;99.90
43524;DHT22;29120;52.006;6.020;2022-11-15T00:12:55;8.50;99.90
43524;DHT22;29120;52.006;6.020;2022-11-15T00:15:21;8.50;99.90
43524;DHT22;29120;52.006;6.020;2022-11-15T00:17:49;8.50;99.90
43524;DHT22;29120;52.006;6.020;2022-11-15T00:20:15;8.50;99.90
43524;DHT22;29120;52.006;6.020;2022-11-15T00:22:40;8.50;99.90
43524;DHT22;29120;52.006;6.020;2022-11-15T00:25:06;8.60;99.90
43524;DHT22;29120;52.006;6.020;2022-11-15T00:27:32;8.60;99.90
43524;DHT22;29120;52.006;6.020;2022-11-15T00:29:57;8.60;99.90
43524;DHT22;29120;52.006;6.020;2022-11-15T00:32:23;8.60;99.90
43524;DHT22;29120;52.006;6.020;2022-11-15T00:34:48;8.60;99.90
43524;DHT22;29120;52.006;6.020;2022-11-15T00:37:14;8.60;99.90
43524;DHT22;29120;52.006;6.020;2022-11-15T00:39:39;8.70;99.90
43524;DHT22;29120;52.006;6.020;2022-11-15T00:42:05;8.60;99.90
43524;DHT22;29120;52.006;6.020;2022-11-15T00:44:30;8.70;99.90
43524;DHT22;29120;52.006;6.020;2022-11-15T00:46:56;8.70;99.90
43524;DHT22;29120;52.006;6.020;2022-11-15T00:49:21;8.70;99.90
43524;DHT22;29120;52.006;6.020;2022-11-15T00:51:47;8.80;99.90
43524;DHT22;29120;52.006;6.020;2022-11-15T00:54:12;8.80;99.90
43524;DHT22;29120;52.006;6.020;2022-11-15T00:56:38;8.80;99.90
43524;DHT22;29120;52.006;6.020;2022-11-15T00:59:03;8.80;99.90
43524;DHT22;29120;52.006;6.020;2022-11-15T01:01:29;8.80;99.90
43524;DHT22;29120;52.006;6.020;2022-11-15T01:03:54;8.80;99.90
43524;DHT22;29120;52.006;6.020;2022-11-15T01:06:20;8.80;99.90
43524;DHT22;29120;52.006;6.020;2022-11-15T01:08:45;8.80;99.90
43524;DHT22;29120;52.006;6.020;2022-11-15T01:11:12;8.80;99.90
43524;DHT22;29120;52.006;6.020;2022-11-15T01:13:39;8.80;99.90
43524;DHT22;29120;52.006;6.020;2022-11-15T01:18:33;8.80;99.90
43524;DHT22;29120;52.006;6.020;2022-11-15T01:20:59;8.80;99.90
43524;DHT22;29120;52.006;6.020;2022-11-15T01:23:24;8.80;99.90
43524;DHT22;29120;52.006;6.020;2022-11-15T01:25:50;8.90;99.90
43524;DHT22;29120;52.006;6.020;2022-11-15T01:28:15;8.90;99.90
43524;DHT22;29120;52.006;6.020;2022-11-15T01:30:41;8.90;99.90
43524;DHT22;29120;52.006;6.020;2022-11-15T01:33:06;8.90;99.90
43524;DHT22;29120;52.006;6.020;2022-11-15T01:35:32;8.90;99.90
43524;DHT22;29120;52.006;6.020;2022-11-15T01:37:57;8.90;99.90
43524;DHT22;29120;52.006;6.020;2022-11-15T01:40:23;8.90;99.90
43524;DHT22;29120;52.006;6.020;2022-11-15T01:42:48;9.00;99.90
43524;DHT22;29120;52.006;6.020;2022-11-15T01:45:15;9.00;99.90
43524;DHT22;29120;52.006;6.020;2022-11-15T01:47:44;9.00;99.90
43524;DHT22;29120;52.006;6.020;2022-11-15T01:50:15;9.00;99.90
43524;DHT22;29120;52.006;6.020;2022-11-15T01:52:42;9.00;99.90
43524;DHT22;29120;52.006;6.020;2022-11-15T01:55:13;9.10;99.90
43524;DHT22;29120;52.006;6.020;2022-11-15T01:57:40;9.10;99.90
43524;DHT22;29120;52.006;6.020;2022-11-15T02:00:06;9.10;99.90
43524;DHT22;29120;52.006;6.020;2022-11-15T02:02:33;9.20;99.90
43524;DHT22;29120;52.006;6.020;2022-11-15T02:04:59;9.20;99.90
43524;DHT22;29120;52.006;6.020;2022-11-15T02:07:25;9.20;99.90
43524;DHT22;29120;52.006;6.020;2022-11-15T02:09:51;9.30;99.90
43524;DHT22;29120;52.006;6.020;2022-11-15T02:12:20;9.30;99.90
43524;DHT22;29120;52.006;6.020;2022-11-15T02:14:50;9.30;99.90
43524;DHT22;29120;52.006;6.020;2022-11-15T02:29:10;9.50;99.90
43524;DHT22;29120;52.006;6.020;2022-11-15T02:31:55;9.50;99.90
43524;DHT22;29120;52.006;6.020;2022-11-15T02:34:28;9.50;99.90
43524;DHT22;29120;52.006;6.020;2022-11-15T02:42:53;9.60;99.90
43524;DHT22;29120;52.006;6.020;2022-11-15T02:46:34;9.60;99.90
43524;DHT22;29120;52.006;6.020;2022-11-15T02:49:14;9.60;99.90
43524;DHT22;29120;52.006;6.020;2022-11-15T02:51:41;9.60;99.90
43524;DHT22;29120;52.006;6.020;2022-11-15T02:54:15;9.70;99.90
43524;DHT22;29120;52.006;6.020;2022-11-15T02:56:45;9.70;99.90
43524;DHT22;29120;52.006;6.020;2022-11-15T03:02:05;9.70;99.90
43524;DHT22;29120;52.006;6.020;2022-11-15T03:13:24;9.80;99.90
43524;DHT22;29120;52.006;6.020;2022-11-15T03:16:14;9.80;99.90
43524;DHT22;29120;52.006;6.020;2022-11-15T03:18:47;9.80;99.90
43524;DHT22;29120;52.006;6.020;2022-11-15T03:21:16;9.80;99.90
43524;DHT22;29120;52.006;6.020;2022-11-15T03:23:44;9.80;99.90
43524;DHT22;29120;52.006;6.020;2022-11-15T03:26:13;9.80;99.90
43524;DHT22;29120;52.006;6.020;2022-11-15T03:28:47;9.90;99.90
43524;DHT22;29120;52.006;6.020;2022-11-15T03:31:15;9.90;99.90
43524;DHT22;29120;52.006;6.020;2022-11-15T03:34:03;9.90;99.90
43524;DHT22;29120;52.006;6.020;2022-11-15T03:36:33;9.90;99.90
43524;DHT22;29120;52.006;6.020;2022-11-15T03:39:02;9.90;99.90
43524;DHT22;29120;52.006;6.020;2022-11-15T03:41:37;10.00;99.90
43524;DHT22;29120;52.006;6.020;2022-11-15T03:44:13;10.00;99.90
43524;DHT22;29120;52.006;6.020;2022-11-15T03:46:49;10.00;99.90
43524;DHT22;29120;52.006;6.020;2022-11-15T03:49:26;10.00;99.90
43524;DHT22;29120;52.006;6.020;2022-11-15T03:51:53;10.00;99.90
43524;DHT22;29120;52.006;6.020;2022-11-15T03:54:21;10.00;99.90
43524;DHT22;29120;52.006;6.020;2022-11-15T03:56:46;10.10;99.90
43524;DHT22;29120;52.006;6.020;2022-11-15T03:59:12;10.10;99.90
43524;DHT22;29120;52.006;6.020;2022-11-15T04:01:38;10.10;99.90
43524;DHT22;29120;52.006;6.020;2022-11-15T04:04:03;10.20;99.90
43524;DHT22;29120;52.006;6.020;2022-11-15T04:06:29;10.30;99.90
43524;DHT22;29120;52.006;6.020;2022-11-15T04:08:54;10.30;99.90
43524;DHT22;29120;52.006;6.020;2022-11-15T04:11:21;10.40;99.90
43524;DHT22;29120;52.006;6.020;2022-11-15T04:13:46;10.40;99.90
43524;DHT22;29120;52.006;6.020;2022-11-15T04:16:12;10.50;99.90
43524;DHT22;29120;52.006;6.020;2022-11-15T04:18:37;10.50;99.90
43524;DHT22;29120;52.006;6.020;2022-11-15T04:21:03;10.60;99.90
43524;DHT22;29120;52.006;6.020;2022-11-15T04:23:47;10.60;99.90
43524;DHT22;29120;52.006;6.020;2022-11-15T04:26:31;10.60;99.90
43524;DHT22;29120;52.006;6.020;2022-11-15T04:28:57;10.70;99.90
43524;DHT22;29120;52.006;6.020;2022-11-15T04:31:41;10.70;99.90
43524;DHT22;29120;52.006;6.020;2022-11-15T04:34:07;10.70;99.90
43524;DHT22;29120;52.006;6.020;2022-11-15T04:36:32;10.70;99.90
43524;DHT22;29120;52.006;6.020;2022-11-15T04:39:17;10.80;99.90
43524;DHT22;29120;52.006;6.020;2022-11-15T04:41:42;10.80;99.90
43524;DHT22;29120;52.006;6.020;2022-11-15T04:44:08;10.80;99.90
43524;DHT22;29120;52.006;6.020;2022-11-15T04:46:34;10.80;99.90
43524;DHT22;29120;52.006;6.020;2022-11-15T04:49:00;10.80;99.90
43524;DHT22;29120;52.006;6.020;2022-11-15T04:51:26;10.80;99.90
43524;DHT22;29120;52.006;6.020;2022-11-15T04:53:51;10.80;99.90
43524;DHT22;29120;52.006;6.020;2022-11-15T04:56:17;10.80;99.90
43524;DHT22;29120;52.006;6.020;2022-11-15T04:58:42;10.90;99.90
43524;DHT22;29120;52.006;6.020;2022-11-15T05:01:09;10.90;99.90
43524;DHT22;29120;52.006;6.020;2022-11-15T05:03:36;10.90;99.90
43524;DHT22;29120;52.006;6.020;2022-11-15T05:06:20;10.90;99.90
43524;DHT22;29120;52.006;6.020;2022-11-15T05:08:45;10.90;99.90
43524;DHT22;29120;52.006;6.020;2022-11-15T05:11:11;10.90;99.90
43524;DHT22;29120;52.006;6.020;2022-11-15T05:13:36;11.00;99.90
43524;DHT22;29120;52.006;6.020;2022-11-15T05:16:02;11.00;99.90
43524;DHT22;29120;52.006;6.020;2022-11-15T05:18:28;11.00;99.90
43524;DHT22;29120;52.006;6.020;2022-11-15T05:20:53;11.00;99.90
43524;DHT22;29120;52.006;6.020;2022-11-15T05:23:19;11.00;99.90
43524;DHT22;29120;52.006;6.020;2022-11-15T05:25:45;11.00;99.90
43524;DHT22;29120;52.006;6.020;2022-11-15T05:28:10;11.00;99.90
43524;DHT22;29120;52.006;6.020;2022-11-15T05:30:36;11.00;99.90
43524;DHT22;29120;52.006;6.020;2022-11-15T05:33:01;11.10;99.90
43524;DHT22;29120;52.006;6.020;2022-11-15T05:35:33;11.10;99.90
43524;DHT22;29120;52.006;6.020;2022-11-15T05:37:59;11.10;99.90
43524;DHT22;29120;52.006;6.020;2022-11-15T05:40:26;11.10;99.90
43524;DHT22;29120;52.006;6.020;2022-11-15T05:42:52;11.10;99.90
43524;DHT22;29120;52.006;6.020;2022-11-15T05:45:17;11.10;99.90
43524;DHT22;29120;52.006;6.020;2022-11-15T05:47:43;11.10;99.90
43524;DHT22;29120;52.006;6.020;2022-11-15T05:50:12;11.10;99.90
43524;DHT22;29120;52.006;6.020;2022-11-15T05:52:39;11.10;99.90
43524;DHT22;29120;52.006;6.020;2022-11-15T05:55:05;11.20;99.90
43524;DHT22;29120;52.006;6.020;2022-11-15T05:57:32;11.10;99.90
43524;DHT22;29120;52.006;6.020;2022-11-15T05:59:58;11.20;99.90
43524;DHT22;29120;52.006;6.020;2022-11-15T06:02:23;11.20;99.90
43524;DHT22;29120;52.006;6.020;2022-11-15T06:04:49;11.20;99.90
43524;DHT22;29120;52.006;6.020;2022-11-15T06:07:14;11.20;99.90
43524;DHT22;29120;52.006;6.020;2022-11-15T06:09:40;11.20;99.90
43524;DHT22;29120;52.006;6.020;2022-11-15T06:12:06;11.20;99.90
43524;DHT22;29120;52.006;6.020;2022-11-15T06:14:31;11.20;99.90
43524;DHT22;29120;52.006;6.020;2022-11-15T06:16:57;11.20;99.90
43524;DHT22;29120;52.006;6.020;2022-11-15T06:19:22;11.30;99.90
43524;DHT22;29120;52.006;6.020;2022-11-15T06:21:48;11.20;99.90
43524;DHT22;29120;52.006;6.020;2022-11-15T06:24:13;11.30;99.90
43524;DHT22;29120;52.006;6.020;2022-11-15T06:26:39;11.30;99.90
43524;DHT22;29120;52.006;6.020;2022-11-15T06:29:05;11.30;99.90
43524;DHT22;29120;52.006;6.020;2022-11-15T06:31:30;11.30;99.90
43524;DHT22;29120;52.006;6.020;2022-11-15T06:33:56;11.30;99.90
43524;DHT22;29120;52.006;6.020;2022-11-15T06:36:22;11.30;99.90
43524;DHT22;29120;52.006;6.020;2022-11-15T06:38:47;11.30;99.90
43524;DHT22;29120;52.006;6.020;2022-11-15T06:41:13;11.30;99.90
43524;DHT22;29120;52.006;6.020;2022-11-15T06:43:40;11.30;99.90
43524;DHT22;29120;52.006;6.020;2022-11-15T06:46:06;11.40;99.90
43524;DHT22;29120;52.006;6.020;2022-11-15T06:48:33;11.30;99.90
43524;DHT22;29120;52.006;6.020;2022-11-15T06:51:00;11.40;99.90
43524;DHT22;29120;52.006;6.020;2022-11-15T06:53:27;11.40;99.90
43524;DHT22;29120;52.006;6.020;2022-11-15T06:55:53;11.40;99.90
43524;DHT22;29120;52.006;6.020;2022-11-15T06:58:20;11.40;99.90
43524;DHT22;29120;52.006;6.020;2022-11-15T07:00:46;11.40;99.90
43524;DHT22;29120;52.006;6.020;2022-11-15T07:03:11;11.40;99.90
43524;DHT22;29120;52.006;6.020;2022-11-15T07:05:37;11.40;99.90
43524;DHT22;29120;52.006;6.020;2022-11-15T07:08:03;11.40;99.90
43524;DHT22;29120;52.006;6.020;2022-11-15T07:10:29;11.40;99.90
43524;DHT22;29120;52.006;6.020;2022-11-15T07:12:55;11.40;99.90
43524;DHT22;29120;52.006;6.020;2022-11-15T07:15:23;11.40;99.90
43524;DHT22;29120;52.006;6.020;2022-11-15T07:17:49;11.50;99.90
43524;DHT22;29120;52.006;6.020;2022-11-15T07:20:15;11.50;99.90
43524;DHT22;29120;52.006;6.020;2022-11-15T07:22:41;11.50;99.90
43524;DHT22;29120;52.006;6.020;2022-11-15T07:25:08;11.50;99.90
43524;DHT22;29120;52.006;6.020;2022-11-15T07:27:34;11.50;99.90
43524;DHT22;29120;52.006;6.020;2022-11-15T07:30:00;11.50;99.90
43524;DHT22;29120;52.006;6.020;2022-11-15T07:32:25;11.50;99.90
43524;DHT22;29120;52.006;6.020;2022-11-15T07:34:51;11.50;99.90
43524;DHT22;29120;52.006;6.020;2022-11-15T07:37:17;11.50;99.90
43524;DHT22;29120;52.006;6.020;2022-11-15T07:39:43;11.50;99.90
43524;DHT22;29120;52.006;6.020;2022-11-15T07:42:09;11.40;99.90
43524;DHT22;29120;52.006;6.020;2022-11-15T07:44:54;11.40;99.90
43524;DHT22;29120;52.006;6.020;2022-11-15T07:47:19;11.40;99.90
43524;DHT22;29120;52.006;6.020;2022-11-15T07:49:45;11.40;99.90
43524;DHT22;29120;52.006;6.020;2022-11-15T07:52:11;11.40;99.90
43524;DHT22;29120;52.006;6.020;2022-11-15T07:54:37;11.40;99.90
43524;DHT22;29120;52.006;6.020;2022-11-15T07:57:03;11.40;99.90
43524;DHT22;29120;52.006;6.020;2022-11-15T07:59:28;11.40;99.90
43524;DHT22;29120;52.006;6.020;2022-11-15T08:01:54;11.40;99.90
43524;DHT22;29120;52.006;6.020;2022-11-15T08:04:19;11.40;99.90
43524;DHT22;29120;52.006;6.020;2022-11-15T08:06:45;11.40;99.90
43524;DHT22;29120;52.006;6.020;2022-11-15T08:09:11;11.50;99.90
43524;DHT22;29120;52.006;6.020;2022-11-15T08:11:36;11.50;99.90
43524;DHT22;29120;52.006;6.020;2022-11-15T08:14:02;11.50;99.90
43524;DHT22;29120;52.006;6.020;2022-11-15T08:16:28;11.50;99.90
43524;DHT22;29120;52.006;6.020;2022-11-15T08:18:53;11.50;99.90
43524;DHT22;29120;52.006;6.020;2022-11-15T08:21:20;11.50;99.90
43524;DHT22;29120;52.006;6.020;2022-11-15T08:23:46;11.50;99.90
43524;DHT22;29120;52.006;6.020;2022-11-15T08:26:11;11.50;99.90
43524;DHT22;29120;52.006;6.020;2022-11-15T08:28:37;11.60;99.90
43524;DHT22;29120;52.006;6.020;2022-11-15T08:31:03;11.60;99.90
43524;DHT22;29120;52.006;6.020;2022-11-15T08:33:30;11.60;99.90
43524;DHT22;29120;52.006;6.020;2022-11-15T08:35:57;11.70;99.90
43524;DHT22;29120;52.006;6.020;2022-11-15T08:38:23;11.80;99.90
43524;DHT22;29120;52.006;6.020;2022-11-15T08:40:52;11.80;99.90
43524;DHT22;29120;52.006;6.020;2022-11-15T08:43:18;11.80;99.90
43524;DHT22;29120;52.006;6.020;2022-11-15T08:45:44;11.90;99.90
43524;DHT22;29120;52.006;6.020;2022-11-15T08:48:09;12.00;99.90
43524;DHT22;29120;52.006;6.020;2022-11-15T08:50:35;12.00;99.90
43524;DHT22;29120;52.006;6.020;2022-11-15T08:53:07;12.00;99.90
43524;DHT22;29120;52.006;6.020;2022-11-15T08:55:36;12.10;99.90
43524;DHT22;29120;52.006;6.020;2022-11-15T08:58:02;12.10;99.90
43524;DHT22;29120;52.006;6.020;2022-11-15T09:00:27;12.10;99.90
43524;DHT22;29120;52.006;6.020;2022-11-15T09:02:53;12.10;99.90
43524;DHT22;29120;52.006;6.020;2022-11-15T09:05:18;12.10;99.90
43524;DHT22;29120;52.006;6.020;2022-11-15T09:07:44;12.10;99.90
43524;DHT22;29120;52.006;6.020;2022-11-15T09:10:10;12.10;99.90
43524;DHT22;29120;52.006;6.020;2022-11-15T09:12:35;12.20;99.90
43524;DHT22;29120;52.006;6.020;2022-11-15T09:15:01;12.20;99.90
43524;DHT22;29120;52.006;6.020;2022-11-15T09:17:27;12.40;99.90
43524;DHT22;29120;52.006;6.020;2022-11-15T09:19:52;12.50;99.90
43524;DHT22;29120;52.006;6.020;2022-11-15T09:22:18;12.50;99.90
43524;DHT22;29120;52.006;6.020;2022-11-15T09:24:43;12.50;99.90
43524;DHT22;29120;52.006;6.020;2022-11-15T09:27:09;12.40;99.90
43524;DHT22;29120;52.006;6.020;2022-11-15T09:29:34;12.40;99.90
43524;DHT22;29120;52.006;6.020;2022-11-15T09:32:00;12.30;99.90
43524;DHT22;29120;52.006;6.020;2022-11-15T09:34:25;12.20;99.90
43524;DHT22;29120;52.006;6.020;2022-11-15T09:36:51;12.20;99.90
43524;DHT22;29120;52.006;6.020;2022-11-15T09:39:16;12.20;99.90
43524;DHT22;29120;52.006;6.020;2022-11-15T09:44:35;12.40;99.90
43524;DHT22;29120;52.006;6.020;2022-11-15T09:49:51;12.50;99.90
43524;DHT22;29120;52.006;6.020;2022-11-15T09:52:18;12.50;99.90
43524;DHT22;29120;52.006;6.020;2022-11-15T09:54:47;12.50;99.90
43524;DHT22;29120;52.006;6.020;2022-11-15T10:02:57;12.40;99.90
43524;DHT22;29120;52.006;6.020;2022-11-15T10:05:25;12.40;99.90
43524;DHT22;29120;52.006;6.020;2022-11-15T10:08:06;12.50;99.90
43524;DHT22;29120;52.006;6.020;2022-11-15T10:10:40;12.50;99.90
43524;DHT22;29120;52.006;6.020;2022-11-15T10:13:16;12.70;99.90
43524;DHT22;29120;52.006;6.020;2022-11-15T10:15:44;13.10;99.90
43524;DHT22;29120;52.006;6.020;2022-11-15T10:21:43;13.80;99.90
43524;DHT22;29120;52.006;6.020;2022-11-15T10:24:11;13.70;99.90
43524;DHT22;29120;52.006;6.020;2022-11-15T10:26:38;13.50;99.90
43524;DHT22;29120;52.006;6.020;2022-11-15T10:29:05;13.30;99.90
43524;DHT22;29120;52.006;6.020;2022-11-15T10:31:30;13.30;99.90
43524;DHT22;29120;52.006;6.020;2022-11-15T10:34:12;13.60;99.90
43524;DHT22;29120;52.006;6.020;2022-11-15T10:36:38;13.80;99.90
43524;DHT22;29120;52.006;6.020;2022-11-15T10:39:12;13.80;99.90
43524;DHT22;29120;52.006;6.020;2022-11-15T10:41:39;13.90;99.90
43524;DHT22;29120;52.006;6.020;2022-11-15T10:44:26;13.70;99.90
43524;DHT22;29120;52.006;6.020;2022-11-15T10:49:25;14.00;99.90
43524;DHT22;29120;52.006;6.020;2022-11-15T10:54:44;14.00;99.90
43524;DHT22;29120;52.006;6.020;2022-11-15T10:57:14;13.90;99.90
43524;DHT22;29120;52.006;6.020;2022-11-15T10:59:46;13.90;99.70
43524;DHT22;29120;52.006;6.020;2022-11-15T11:02:31;15.50;98.90
43524;DHT22;29120;52.006;6.020;2022-11-15T11:04:58;16.20;96.60
43524;DHT22;29120;52.006;6.020;2022-11-15T11:07:30;17.10;95.90
43524;DHT22;29120;52.006;6.020;2022-11-15T11:10:20;17.90;93.20
43524;DHT22;29120;52.006;6.020;2022-11-15T11:12:46;18.20;91.10
43524;DHT22;29120;52.006;6.020;2022-11-15T11:15:13;18.40;91.10
43524;DHT22;29120;52.006;6.020;2022-11-15T11:18:02;18.10;91.30
43524;DHT22;29120;52.006;6.020;2022-11-15T11:20:43;17.60;90.80
43524;DHT22;29120;52.006;6.020;2022-11-15T11:23:39;17.20;89.70
43524;DHT22;29120;52.006;6.020;2022-11-15T11:32:03;17.40;86.60
43524;DHT22;29120;52.006;6.020;2022-11-15T11:40:20;19.10;80.90
43524;DHT22;29120;52.006;6.020;2022-11-15T11:42:58;19.60;78.30
43524;DHT22;29120;52.006;6.020;2022-11-15T11:48:42;20.60;73.90
43524;DHT22;29120;52.006;6.020;2022-11-15T11:51:38;21.00;71.40
43524;DHT22;29120;52.006;6.020;2022-11-15T11:54:28;21.10;70.40
43524;DHT22;29120;52.006;6.020;2022-11-15T11:56:58;20.60;70.80
43524;DHT22;29120;52.006;6.020;2022-11-15T11:59:48;20.90;71.50
43524;DHT22;29120;52.006;6.020;2022-11-15T12:02:21;21.10;68.40
43524;DHT22;29120;52.006;6.020;2022-11-15T12:04:52;21.30;67.80
43524;DHT22;29120;52.006;6.020;2022-11-15T12:07:23;21.20;68.40
43524;DHT22;29120;52.006;6.020;2022-11-15T12:10:01;21.00;67.50
43524;DHT22;29120;52.006;6.020;2022-11-15T12:12:36;20.30;67.80
43524;DHT22;29120;52.006;6.020;2022-11-15T12:15:09;20.00;67.50
43524;DHT22;29120;52.006;6.020;2022-11-15T12:17:37;20.00;67.50
43524;DHT22;29120;52.006;6.020;2022-11-15T12:20:17;20.00;66.70
43524;DHT22;29120;52.006;6.020;2022-11-15T12:22:58;19.80;66.00
43524;DHT22;29120;52.006;6.020;2022-11-15T12:31:38;19.20;65.30
43524;DHT22;29120;52.006;6.020;2022-11-15T12:34:40;19.10;65.70
43524;DHT22;29120;52.006;6.020;2022-11-15T12:37:33;19.20;67.00
43524;DHT22;29120;52.006;6.020;2022-11-15T12:45:37;19.10;67.10
43524;DHT22;29120;52.006;6.020;2022-11-15T12:50:56;18.90;67.50
43524;DHT22;29120;52.006;6.020;2022-11-15T13:06:53;18.40;64.10
43524;DHT22;29120;52.006;6.020;2022-11-15T13:14:49;18.00;65.00
43524;DHT22;29120;52.006;6.020;2022-11-15T13:28:22;17.30;67.20
43524;DHT22;29120;52.006;6.020;2022-11-15T13:30:58;16.80;68.30
43524;DHT22;29120;52.006;6.020;2022-11-15T13:33:33;16.30;69.80
43524;DHT22;29120;52.006;6.020;2022-11-15T13:36:03;16.10;70.70
43524;DHT22;29120;52.006;6.020;2022-11-15T13:38:32;15.70;71.40
43524;DHT22;29120;52.006;6.020;2022-11-15T13:41:00;15.40;72.40
43524;DHT22;29120;52.006;6.020;2022-11-15T13:43:35;15.30;73.40
43524;DHT22;29120;52.006;6.020;2022-11-15T13:48:52;15.20;74.70
43524;DHT22;29120;52.006;6.020;2022-11-15T13:51:37;15.00;75.40
43524;DHT22;29120;52.006;6.020;2022-11-15T13:56:41;14.80;76.20
43524;DHT22;29120;52.006;6.020;2022-11-15T13:59:14;14.70;76.70
43524;DHT22;29120;52.006;6.020;2022-11-15T14:01:41;14.70;77.20
43524;DHT22;29120;52.006;6.020;2022-11-15T14:04:12;14.70;77.40
43524;DHT22;29120;52.006;6.020;2022-11-15T14:06:46;14.60;78.00
43524;DHT22;29120;52.006;6.020;2022-11-15T14:11:54;14.50;78.70
43524;DHT22;29120;52.006;6.020;2022-11-15T14:14:22;14.40;78.80
43524;DHT22;29120;52.006;6.020;2022-11-15T14:17:18;14.40;79.10
43524;DHT22;29120;52.006;6.020;2022-11-15T14:19:39;14.30;79.20
43524;DHT22;29120;52.006;6.020;2022-11-15T14:25:12;14.20;80.00
43524;DHT22;29120;52.006;6.020;2022-11-15T14:27:39;14.10;80.20
43524;DHT22;29120;52.006;6.020;2022-11-15T14:30:05;14.10;80.70
43524;DHT22;29120;52.006;6.020;2022-11-15T14:32:47;14.00;81.00
43524;DHT22;29120;52.006;6.020;2022-11-15T14:35:18;13.90;81.30
43524;DHT22;29120;52.006;6.020;2022-11-15T14:37:45;13.90;81.60
43524;DHT22;29120;52.006;6.020;2022-11-15T14:40:14;13.80;81.70
43524;DHT22;29120;52.006;6.020;2022-11-15T14:42:41;13.80;82.00
43524;DHT22;29120;52.006;6.020;2022-11-15T14:45:18;13.70;82.20
43524;DHT22;29120;52.006;6.020;2022-11-15T14:47:44;13.70;82.30
43524;DHT22;29120;52.006;6.020;2022-11-15T14:50:18;13.80;82.50
43524;DHT22;29120;52.006;6.020;2022-11-15T14:52:44;13.70;82.60
43524;DHT22;29120;52.006;6.020;2022-11-15T14:55:25;13.60;82.70
43524;DHT22;29120;52.006;6.020;2022-11-15T14:57:51;13.70;83.00
43524;DHT22;29120;52.006;6.020;2022-11-15T15:00:18;13.70;83.10
43524;DHT22;29120;52.006;6.020;2022-11-15T15:02:45;13.70;83.30
43524;DHT22;29120;52.006;6.020;2022-11-15T15:07:41;13.60;83.70
43524;DHT22;29120;52.006;6.020;2022-11-15T15:10:07;13.60;83.70
43524;DHT22;29120;52.006;6.020;2022-11-15T15:12:33;13.60;83.90
43524;DHT22;29120;52.006;6.020;2022-11-15T15:14:58;13.50;84.10
43524;DHT22;29120;52.006;6.020;2022-11-15T15:17:24;13.50;84.30
43524;DHT22;29120;52.006;6.020;2022-11-15T15:19:50;13.50;84.40
43524;DHT22;29120;52.006;6.020;2022-11-15T15:22:17;13.50;84.60
43524;DHT22;29120;52.006;6.020;2022-11-15T15:24:44;13.40;84.60
43524;DHT22;29120;52.006;6.020;2022-11-15T15:27:10;13.40;84.60
43524;DHT22;29120;52.006;6.020;2022-11-15T15:29:36;13.40;84.70
43524;DHT22;29120;52.006;6.020;2022-11-15T15:32:02;13.40;84.80
43524;DHT22;29120;52.006;6.020;2022-11-15T15:34:27;13.40;84.80
43524;DHT22;29120;52.006;6.020;2022-11-15T15:37:22;13.30;84.70
43524;DHT22;29120;52.006;6.020;2022-11-15T15:39:48;13.40;84.70
43524;DHT22;29120;52.006;6.020;2022-11-15T15:42:14;13.30;84.60
43524;DHT22;29120;52.006;6.020;2022-11-15T15:44:40;13.40;84.70
43524;DHT22;29120;52.006;6.020;2022-11-15T15:47:20;13.30;84.70
43524;DHT22;29120;52.006;6.020;2022-11-15T15:49:46;13.30;84.80
43524;DHT22;29120;52.006;6.020;2022-11-15T15:52:12;13.30;84.80
43524;DHT22;29120;52.006;6.020;2022-11-15T15:54:38;13.40;84.90
43524;DHT22;29120;52.006;6.020;2022-11-15T15:57:05;13.30;84.80
43524;DHT22;29120;52.006;6.020;2022-11-15T15:59:30;13.30;84.90
43524;DHT22;29120;52.006;6.020;2022-11-15T16:01:56;13.30;85.10
43524;DHT22;29120;52.006;6.020;2022-11-15T16:04:22;13.30;85.10
43524;DHT22;29120;52.006;6.020;2022-11-15T16:06:48;13.30;85.10
43524;DHT22;29120;52.006;6.020;2022-11-15T16:09:17;13.30;85.10
43524;DHT22;29120;52.006;6.020;2022-11-15T16:11:44;13.30;85.40
43524;DHT22;29120;52.006;6.020;2022-11-15T16:14:10;13.30;85.50
43524;DHT22;29120;52.006;6.020;2022-11-15T16:16:36;13.30;85.70
43524;DHT22;29120;52.006;6.020;2022-11-15T16:19:03;13.30;85.80
43524;DHT22;29120;52.006;6.020;2022-11-15T16:21:29;13.30;85.90
43524;DHT22;29120;52.006;6.020;2022-11-15T16:23:54;13.30;86.10
43524;DHT22;29120;52.006;6.020;2022-11-15T16:26:25;13.30;86.40
43524;DHT22;29120;52.006;6.020;2022-11-15T16:28:51;13.30;86.50
43524;DHT22;29120;52.006;6.020;2022-11-15T16:31:17;13.30;86.60
43524;DHT22;29120;52.006;6.020;2022-11-15T16:33:45;13.30;86.90
43524;DHT22;29120;52.006;6.020;2022-11-15T16:36:24;13.30;87.60
43524;DHT22;29120;52.006;6.020;2022-11-15T16:38:50;13.30;87.10
43524;DHT22;29120;52.006;6.020;2022-11-15T16:41:17;13.30;87.30
43524;DHT22;29120;52.006;6.020;2022-11-15T16:43:47;13.30;87.50
43524;DHT22;29120;52.006;6.020;2022-11-15T16:48:43;13.20;87.70
43524;DHT22;29120;52.006;6.020;2022-11-15T16:51:09;13.20;87.80
43524;DHT22;29120;52.006;6.020;2022-11-15T16:53:35;13.20;88.10
43524;DHT22;29120;52.006;6.020;2022-11-15T16:56:01;13.20;88.20
43524;DHT22;29120;52.006;6.020;2022-11-15T16:58:27;13.20;88.40
43524;DHT22;29120;52.006;6.020;2022-11-15T17:00:53;13.20;88.50
43524;DHT22;29120;52.006;6.020;2022-11-15T17:03:23;13.20;88.60
43524;DHT22;29120;52.006;6.020;2022-11-15T17:05:49;13.20;88.70
43524;DHT22;29120;52.006;6.020;2022-11-15T17:08:15;13.20;88.70
43524;DHT22;29120;52.006;6.020;2022-11-15T17:10:40;13.20;88.70
43524;DHT22;29120;52.006;6.020;2022-11-15T17:13:11;13.20;88.90
43524;DHT22;29120;52.006;6.020;2022-11-15T17:15:38;13.20;88.90
43524;DHT22;29120;52.006;6.020;2022-11-15T17:18:04;13.20;88.90
43524;DHT22;29120;52.006;6.020;2022-11-15T17:20:29;13.30;89.10
43524;DHT22;29120;52.006;6.020;2022-11-15T17:22:55;13.30;89.20
43524;DHT22;29120;52.006;6.020;2022-11-15T17:25:20;13.30;89.50
43524;DHT22;29120;52.006;6.020;2022-11-15T17:27:46;13.30;89.60
43524;DHT22;29120;52.006;6.020;2022-11-15T17:30:13;13.30;89.80
43524;DHT22;29120;52.006;6.020;2022-11-15T17:32:43;13.30;89.90
43524;DHT22;29120;52.006;6.020;2022-11-15T17:35:10;13.30;90.00
43524;DHT22;29120;52.006;6.020;2022-11-15T17:37:36;13.30;90.10
43524;DHT22;29120;52.006;6.020;2022-11-15T17:40:02;13.40;90.20
43524;DHT22;29120;52.006;6.020;2022-11-15T17:42:28;13.40;90.30
43524;DHT22;29120;52.006;6.020;2022-11-15T17:44:53;13.40;90.40
43524;DHT22;29120;52.006;6.020;2022-11-15T17:47:19;13.40;90.50
43524;DHT22;29120;52.006;6.020;2022-11-15T17:49:44;13.40;90.60
43524;DHT22;29120;52.006;6.020;2022-11-15T17:52:10;13.40;90.80